This is the latest recevied weather packets stored in our database for station/object OK6DJ-6. If no packets are shown the sender has not sent any weather packets the latest 1 day(s).
| Time | Temp. | Humidity | Pressure | Rain* | Wind** | Luminosity | Snow |
|---|---|---|---|---|---|---|---|
| 1788485476 | 15° C | 91% | 1019 hPa | 0 mm | 0 m/s | - | - |
| 1788484876 | 15.56° C | 89% | 1019.1 hPa | 0 mm | 0 m/s | - | - |
| 1788484276 | 15.56° C | 89% | 1019.2 hPa | 0 mm | 0 m/s | - | - |
| 1788483676 | 15.56° C | 90% | 1019.3 hPa | 0 mm | 0 m/s | - | - |
| 1788483076 | 16.11° C | 90% | 1019.4 hPa | 0 mm | 0 m/s | - | - |
| 1788482476 | 16.11° C | 90% | 1019.3 hPa | 0 mm | 0 m/s | - | - |
| 1788481876 | 16.11° C | 89% | 1019.4 hPa | 0 mm | 0 m/s | - | - |
| 1788481276 | 16.11° C | 88% | 1019.6 hPa | 0 mm | 0 m/s | - | - |
| 1788480676 | 16.67° C | 86% | 1019.8 hPa | 0 mm | 0 m/s | - | - |
| 1788480076 | 16.67° C | 85% | 1019.7 hPa | 0 mm | 0 m/s | - | - |
| 1788479476 | 17.22° C | 84% | 1019.9 hPa | 0 mm | 0.45 m/s, 0° | - | - |
| 1788478876 | 17.22° C | 84% | 1019.9 hPa | 0 mm | 0.45 m/s, 0° | - | - |
| 1788478276 | 17.22° C | 85% | 1020.1 hPa | 0 mm | 0 m/s | - | - |
| 1788477676 | 17.22° C | 86% | 1020.2 hPa | 0 mm | 0 m/s | - | - |
| 1788477076 | 16.67° C | 88% | 1020.2 hPa | 0 mm | 0 m/s | - | - |
| 1788476476 | 16.67° C | 90% | 1019.9 hPa | 0 mm | 0 m/s | - | - |
| 1788475876 | 16.67° C | 89% | 1019.9 hPa | 0 mm | 0 m/s | - | - |
| 1788475276 | 16.11° C | 92% | 1019.7 hPa | 0 mm | 0 m/s | - | - |
| 1788474676 | 16.11° C | 93% | 1019.9 hPa | 0 mm | 0 m/s | - | - |
| 1788474076 | 16.11° C | 94% | 1019.8 hPa | 0 mm | 0 m/s | - | - |
| 1788473476 | 16.11° C | 93% | 1019.6 hPa | 0 mm | 0 m/s | - | - |
| 1788472876 | 16.11° C | 92% | 1019.6 hPa | 0 mm | 0 m/s | - | - |
| 1788472276 | 16.11° C | 92% | 1019.7 hPa | 0 mm | 0 m/s | - | - |
| 1788471676 | 16.67° C | 91% | 1019.9 hPa | 0 mm | 0 m/s | - | - |
| 1788471076 | 16.11° C | 92% | 1019.9 hPa | 0 mm | 0 m/s | - | - |
* Rain latest hour (hover to see other rain measurements)
** Current wind speed in m/s (hover to see current wind gust speed)